createdAt,value
2023-03-27T00:00:12.392Z,96245.00
2023-03-27T00:05:14.013Z,96249.00
2023-03-27T00:10:15.929Z,96255.00
2023-03-27T00:15:16.799Z,96279.00
2023-03-27T00:20:23.612Z,96300.00
2023-03-27T00:25:28.310Z,96301.00
2023-03-27T00:30:30.364Z,96323.00
2023-03-27T00:35:31.545Z,96343.00
2023-03-27T00:40:32.580Z,96346.00
2023-03-27T00:45:34.211Z,96362.00
2023-03-27T00:50:39.612Z,96364.00
2023-03-27T00:55:44.332Z,96362.00
2023-03-27T01:00:48.403Z,96373.00
2023-03-27T01:05:50.281Z,96381.00
2023-03-27T01:11:13.783Z,96385.00
2023-03-27T01:16:24.026Z,96416.00
2023-03-27T01:22:14.813Z,96425.00
2023-03-27T01:27:21.608Z,96428.00
2023-03-27T01:32:42.009Z,96445.00
2023-03-27T01:38:47.560Z,96450.00
2023-03-27T01:43:59.129Z,96462.00
2023-03-27T01:49:09.610Z,96466.00
2023-03-27T01:54:23.239Z,96456.00
2023-03-27T01:59:27.957Z,96468.00
2023-03-27T02:04:50.794Z,96491.00
2023-03-27T02:09:55.863Z,96488.00
2023-03-27T02:15:24.561Z,96489.00
2023-03-27T02:20:27.139Z,96514.00
2023-03-27T02:25:34.888Z,96525.00
2023-03-27T02:32:24.396Z,96545.00
2023-03-27T02:42:40.548Z,96538.00
2023-03-27T02:47:46.525Z,96545.00
2023-03-27T02:52:52.806Z,96569.00
2023-03-27T02:58:02.084Z,96575.00
2023-03-27T03:04:09.798Z,96590.00
2023-03-27T03:11:03.640Z,96611.00
2023-03-27T03:16:05.356Z,96610.00
2023-03-27T03:21:07.756Z,96623.00
2023-03-27T03:26:08.645Z,96641.00
2023-03-27T03:31:18.684Z,96653.00
2023-03-27T03:36:19.746Z,96660.00
2023-03-27T03:41:20.645Z,96680.00
2023-03-27T03:46:22.254Z,96693.00
2023-03-27T03:51:24.383Z,96706.00
2023-03-27T03:56:26.997Z,96706.00
2023-03-27T04:01:28.266Z,96727.00
2023-03-27T04:06:36.920Z,96742.00
2023-03-27T04:11:37.939Z,96750.00
2023-03-27T04:16:48.755Z,96769.00
2023-03-27T04:21:55.386Z,96780.00
2023-03-27T04:26:57.536Z,96804.00
2023-03-27T04:32:18.197Z,96815.00
2023-03-27T04:37:41.253Z,96836.00
2023-03-27T04:43:40.999Z,96854.00
2023-03-27T04:48:42.502Z,96864.00
2023-03-27T04:54:06.659Z,96864.00
2023-03-27T04:59:17.260Z,96883.00
2023-03-27T05:04:20.416Z,96883.00
2023-03-27T05:09:42.625Z,96893.00
2023-03-27T05:14:44.942Z,96905.00
2023-03-27T05:19:57.719Z,96918.00
2023-03-27T05:24:59.093Z,96925.00
2023-03-27T05:30:01.769Z,96943.00
2023-03-27T05:35:04.630Z,96951.00
2023-03-27T05:40:12.927Z,96968.00
2023-03-27T05:45:14.757Z,96970.00
2023-03-27T05:50:17.282Z,96988.00
2023-03-27T05:55:19.148Z,96993.00
2023-03-27T06:00:25.436Z,97007.00
2023-03-27T06:05:29.284Z,97014.00
2023-03-27T06:10:30.259Z,97023.00
2023-03-27T06:15:46.696Z,97028.00
2023-03-27T06:20:58.948Z,97040.00
2023-03-27T06:26:00.294Z,97049.00
2023-03-27T06:31:03.562Z,97058.00
2023-03-27T06:36:14.042Z,97071.00
2023-03-27T06:41:15.517Z,97076.00
2023-03-27T06:46:42.632Z,97086.00
2023-03-27T06:51:55.854Z,97098.00
2023-03-27T06:57:00.073Z,97112.00
2023-03-27T07:02:01.160Z,97113.00
2023-03-27T07:07:29.041Z,97141.00
2023-03-27T07:12:30.261Z,97135.00
2023-03-27T07:17:42.146Z,97151.00
2023-03-27T07:22:50.547Z,97154.00
2023-03-27T07:28:01.355Z,97160.00
2023-03-27T07:33:03.986Z,97164.00
2023-03-27T07:38:06.207Z,97180.00
2023-03-27T07:43:24.789Z,97186.00
2023-03-27T07:48:27.881Z,97190.00
2023-03-27T07:53:34.072Z,97203.00
2023-03-27T07:58:41.996Z,97201.00
2023-03-27T08:03:43.106Z,97215.00
2023-03-27T08:08:45.035Z,97221.00
2023-03-27T08:13:46.106Z,97222.00
2023-03-27T08:18:48.895Z,97223.00
2023-03-27T08:23:50.384Z,97232.00
2023-03-27T08:29:24.453Z,97242.00
2023-03-27T08:34:27.229Z,97240.00
2023-03-27T08:39:29.956Z,97254.00
2023-03-27T08:44:37.581Z,97252.00
2023-03-27T08:49:51.840Z,97255.00
2023-03-27T08:55:42.032Z,97264.00
2023-03-27T09:01:00.165Z,97265.00
2023-03-27T09:06:09.799Z,97277.00
2023-03-27T09:12:49.784Z,97264.00
2023-03-27T09:21:05.068Z,97272.00
2023-03-27T09:26:13.187Z,97296.00
2023-03-27T09:31:43.811Z,97310.00
2023-03-27T09:36:44.952Z,97314.00
2023-03-27T09:41:50.518Z,97315.00
2023-03-27T09:47:13.511Z,97316.00
2023-03-27T09:52:41.091Z,97315.00
2023-03-27T09:58:09.252Z,97319.00
2023-03-27T10:03:17.121Z,97321.00
2023-03-27T10:08:41.278Z,97318.00
2023-03-27T10:13:58.402Z,97321.00
2023-03-27T10:19:00.050Z,97317.00
2023-03-27T10:24:26.307Z,97321.00
2023-03-27T10:30:34.850Z,97315.00
2023-03-27T10:35:58.172Z,97316.00
2023-03-27T10:41:11.262Z,97317.00
2023-03-27T10:46:22.330Z,97323.00
2023-03-27T10:53:45.079Z,97355.00
2023-03-27T10:59:00.997Z,97376.00
2023-03-27T11:05:43.718Z,97354.00
2023-03-27T11:10:57.403Z,97356.00
2023-03-27T11:16:26.490Z,97356.00
2023-03-27T11:25:15.831Z,97345.00
2023-03-27T11:30:31.152Z,97348.00
2023-03-27T11:35:37.684Z,97350.00
2023-03-27T11:41:04.142Z,97348.00
2023-03-27T11:46:28.979Z,97352.00
2023-03-27T11:52:20.142Z,97360.00
2023-03-27T11:57:26.192Z,97365.00
2023-03-27T12:04:21.667Z,97375.00
2023-03-27T12:11:06.400Z,97390.00
2023-03-27T12:18:10.319Z,97402.00
2023-03-27T12:24:59.954Z,97409.00
2023-03-27T12:30:57.962Z,97420.00
2023-03-27T12:36:05.386Z,97420.00
2023-03-27T12:41:42.877Z,97417.00
2023-03-27T12:47:23.248Z,97403.00
2023-03-27T12:52:32.095Z,97402.00
2023-03-27T12:57:46.226Z,97400.00
2023-03-27T13:06:11.874Z,97402.00
2023-03-27T13:18:10.305Z,97398.00
2023-03-27T13:30:00.894Z,97399.00
2023-03-27T13:35:32.107Z,97401.00
2023-03-27T13:40:39.794Z,97400.00
2023-03-27T13:45:51.393Z,97396.00
2023-03-27T13:51:40.344Z,97395.00
2023-03-27T13:59:57.455Z,97396.00
2023-03-27T14:05:30.966Z,97404.00
2023-03-27T14:11:26.754Z,97402.00
2023-03-27T14:16:50.629Z,97395.00
2023-03-27T14:22:00.876Z,97402.00
2023-03-27T14:27:06.401Z,97405.00
2023-03-27T14:32:13.221Z,97403.00
2023-03-27T14:37:28.372Z,97405.00
2023-03-27T14:42:33.055Z,97398.00
2023-03-27T14:47:35.251Z,97408.00
2023-03-27T14:52:37.025Z,97407.00
2023-03-27T15:03:15.668Z,97436.00
2023-03-27T15:08:18.952Z,97454.00
2023-03-27T15:14:41.229Z,97469.00
2023-03-27T15:19:48.429Z,97473.00
2023-03-27T15:25:02.102Z,97496.00
2023-03-27T15:30:28.195Z,97490.00
2023-03-27T15:35:41.108Z,97493.00
2023-03-27T15:40:45.775Z,97478.00
2023-03-27T15:46:19.803Z,97473.00
2023-03-27T15:51:30.259Z,97479.00
2023-03-27T15:56:40.530Z,97478.00
2023-03-27T16:01:52.426Z,97480.00
2023-03-27T16:07:05.293Z,97474.00
2023-03-27T16:12:09.836Z,97486.00
2023-03-27T16:17:19.892Z,97505.00
2023-03-27T16:22:32.449Z,97556.00
2023-03-27T16:27:58.216Z,97549.00
2023-03-27T16:32:59.654Z,97559.00
2023-03-27T16:38:01.503Z,97530.00
2023-03-27T16:43:02.351Z,97530.00
2023-03-27T16:48:03.752Z,97529.00
2023-03-27T16:53:04.981Z,97534.00
2023-03-27T16:58:05.933Z,97533.00
2023-03-27T17:03:06.825Z,97544.00
2023-03-27T17:08:08.068Z,97549.00
2023-03-27T17:13:09.049Z,97551.00
2023-03-27T17:18:10.204Z,97558.00
2023-03-27T17:23:11.546Z,97571.00
2023-03-27T17:28:12.965Z,97573.00
2023-03-27T17:33:13.813Z,97586.00
2023-03-27T17:38:18.204Z,97588.00
2023-03-27T17:43:19.016Z,97601.00
2023-03-27T17:48:19.833Z,97610.00
2023-03-27T17:53:21.221Z,97614.00
2023-03-27T17:58:22.585Z,97621.00
2023-03-27T18:03:23.478Z,97631.00
2023-03-27T18:08:24.439Z,97634.00
2023-03-27T18:13:26.605Z,97635.00
2023-03-27T18:18:27.381Z,97639.00
2023-03-27T18:23:28.502Z,97652.00
2023-03-27T18:28:29.231Z,97664.00
2023-03-27T18:33:31.202Z,97668.00
2023-03-27T18:38:32.131Z,97661.00
2023-03-27T18:43:33.164Z,97659.00
2023-03-27T18:48:34.895Z,97663.00
2023-03-27T18:53:36.108Z,97662.00
2023-03-27T18:58:37.282Z,97672.00
2023-03-27T19:03:39.819Z,97678.00
2023-03-27T19:08:42.733Z,97681.00
2023-03-27T19:13:43.965Z,97684.00
2023-03-27T19:18:51.066Z,97692.00
2023-03-27T19:24:13.521Z,97687.00
2023-03-27T19:29:17.626Z,97692.00
2023-03-27T19:34:18.695Z,97699.00
2023-03-27T19:39:22.813Z,97707.00
2023-03-27T19:44:23.695Z,97708.00
2023-03-27T19:49:24.878Z,97700.00
2023-03-27T19:54:38.863Z,97714.00
2023-03-27T19:59:39.822Z,97723.00
2023-03-27T20:04:40.890Z,97725.00
2023-03-27T20:09:41.679Z,97738.00
2023-03-27T20:14:43.666Z,97735.00
2023-03-27T20:19:49.452Z,97741.00
2023-03-27T20:24:50.407Z,97744.00
2023-03-27T20:29:51.232Z,97742.00
2023-03-27T20:34:53.930Z,97747.00
2023-03-27T20:39:54.714Z,97751.00
2023-03-27T20:44:58.128Z,97741.00
2023-03-27T20:50:02.924Z,97741.00
2023-03-27T20:55:04.335Z,97752.00
2023-03-27T21:00:07.007Z,97750.00
2023-03-27T21:05:08.052Z,97752.00
2023-03-27T21:10:11.033Z,97755.00
2023-03-27T21:15:13.129Z,97752.00
2023-03-27T21:20:14.046Z,97754.00
2023-03-27T21:25:15.129Z,97759.00
2023-03-27T21:30:16.585Z,97752.00
2023-03-27T21:35:17.653Z,97762.00
2023-03-27T21:40:18.585Z,97758.00
2023-03-27T21:45:19.757Z,97769.00
2023-03-27T21:50:20.557Z,97776.00
2023-03-27T21:55:25.316Z,97780.00
2023-03-27T22:00:26.398Z,97778.00
2023-03-27T22:05:27.185Z,97794.00
2023-03-27T22:10:27.969Z,97792.00
2023-03-27T22:15:29.349Z,97793.00
2023-03-27T22:20:30.640Z,97794.00
2023-03-27T22:25:31.530Z,97799.00
2023-03-27T22:30:32.322Z,97807.00
2023-03-27T22:35:33.193Z,97802.00
2023-03-27T22:40:36.756Z,97813.00
2023-03-27T22:45:37.536Z,97808.00
2023-03-27T22:50:38.800Z,97819.00
2023-03-27T22:55:40.013Z,97826.00
2023-03-27T23:00:40.859Z,97825.00
2023-03-27T23:05:44.600Z,97826.00
2023-03-27T23:10:45.598Z,97833.00
2023-03-27T23:15:46.428Z,97834.00
2023-03-27T23:20:47.266Z,97842.00
2023-03-27T23:25:48.365Z,97847.00
2023-03-27T23:30:58.131Z,97858.00
2023-03-27T23:36:02.199Z,97861.00
2023-03-27T23:41:08.305Z,97859.00
2023-03-27T23:46:12.427Z,97874.00
2023-03-27T23:51:15.599Z,97873.00
2023-03-27T23:56:16.397Z,97877.00
